Barnes, Wisconsin
Current Conditions -  °F | °C
As of 11:35 AM on Wednesday 26 Nov 2014 (Local Time) from KOLG Reporting Station
Overcast Overcast  
Wind Chill: 16°   Ceiling: 1100
Heat Index: 23°   Visibility: 7mi
Dew Point: 18°   Wind: 6mph
Humidity: 80%   Direction: 340°NNW
Pressure: 30.17"   Gusts: NA
Location:  46.3544°N, 91.6708°W
Report Text: KOLG 261735Z AUTO 34005KT 7SM OVC011 M05/M08 A3017 RMK AO1
Loading
Personal Weather Stations






























Interactive Weather Map New forecast layout! Learn more

10-Day Weather Forecast

Advertisements
Track Severe Weather on mobile